sensor_id;sensor_type;location;lat;lon;timestamp;P1;durP1;ratioP1;P2;durP2;ratioP2
8978;SDS011;4524;51.364;5.448;2022-11-20T00:01:03;13.03;;;10.57;;
8978;SDS011;4524;51.364;5.448;2022-11-20T00:03:32;13.87;;;10.03;;
8978;SDS011;4524;51.364;5.448;2022-11-20T00:06:00;13.67;;;10.07;;
8978;SDS011;4524;51.364;5.448;2022-11-20T00:08:28;13.17;;;10.30;;
8978;SDS011;4524;51.364;5.448;2022-11-20T00:10:56;14.30;;;10.93;;
8978;SDS011;4524;51.364;5.448;2022-11-20T00:13:24;14.37;;;10.60;;
8978;SDS011;4524;51.364;5.448;2022-11-20T00:15:57;14.33;;;11.23;;
8978;SDS011;4524;51.364;5.448;2022-11-20T00:18:26;14.17;;;11.53;;
8978;SDS011;4524;51.364;5.448;2022-11-20T00:20:59;14.77;;;10.17;;
8978;SDS011;4524;51.364;5.448;2022-11-20T00:23:28;12.83;;;10.33;;
8978;SDS011;4524;51.364;5.448;2022-11-20T00:25:56;12.50;;;10.30;;
8978;SDS011;4524;51.364;5.448;2022-11-20T00:28:27;13.27;;;10.47;;
8978;SDS011;4524;51.364;5.448;2022-11-20T00:31:01;14.47;;;11.07;;
8978;SDS011;4524;51.364;5.448;2022-11-20T00:33:30;13.90;;;10.43;;
8978;SDS011;4524;51.364;5.448;2022-11-20T00:36:01;14.93;;;11.50;;
8978;SDS011;4524;51.364;5.448;2022-11-20T00:38:30;14.07;;;11.33;;
8978;SDS011;4524;51.364;5.448;2022-11-20T00:40:59;14.03;;;10.80;;
8978;SDS011;4524;51.364;5.448;2022-11-20T00:43:27;14.50;;;10.30;;
8978;SDS011;4524;51.364;5.448;2022-11-20T00:45:56;14.60;;;10.47;;
8978;SDS011;4524;51.364;5.448;2022-11-20T00:48:26;16.20;;;11.73;;
8978;SDS011;4524;51.364;5.448;2022-11-20T00:50:54;14.57;;;11.40;;
8978;SDS011;4524;51.364;5.448;2022-11-20T00:53:23;13.83;;;11.17;;
8978;SDS011;4524;51.364;5.448;2022-11-20T00:55:54;13.83;;;10.40;;
8978;SDS011;4524;51.364;5.448;2022-11-20T00:58:23;13.57;;;10.80;;
8978;SDS011;4524;51.364;5.448;2022-11-20T01:00:52;14.07;;;10.83;;
8978;SDS011;4524;51.364;5.448;2022-11-20T01:03:20;14.87;;;11.47;;
8978;SDS011;4524;51.364;5.448;2022-11-20T01:05:53;13.93;;;10.53;;
8978;SDS011;4524;51.364;5.448;2022-11-20T01:08:21;13.93;;;11.53;;
8978;SDS011;4524;51.364;5.448;2022-11-20T01:10:49;15.00;;;11.73;;
8978;SDS011;4524;51.364;5.448;2022-11-20T01:13:17;14.53;;;11.03;;
8978;SDS011;4524;51.364;5.448;2022-11-20T01:16:03;13.97;;;10.13;;
8978;SDS011;4524;51.364;5.448;2022-11-20T01:18:32;13.93;;;10.80;;
8978;SDS011;4524;51.364;5.448;2022-11-20T01:21:02;13.30;;;10.07;;
8978;SDS011;4524;51.364;5.448;2022-11-20T01:23:31;13.30;;;10.37;;
8978;SDS011;4524;51.364;5.448;2022-11-20T01:26:00;15.50;;;11.10;;
8978;SDS011;4524;51.364;5.448;2022-11-20T01:28:29;14.90;;;11.30;;
8978;SDS011;4524;51.364;5.448;2022-11-20T01:30:58;14.13;;;10.80;;
8978;SDS011;4524;51.364;5.448;2022-11-20T01:33:26;16.07;;;11.23;;
8978;SDS011;4524;51.364;5.448;2022-11-20T01:36:04;15.87;;;11.10;;
8978;SDS011;4524;51.364;5.448;2022-11-20T01:38:33;14.23;;;10.77;;
8978;SDS011;4524;51.364;5.448;2022-11-20T01:41:01;14.30;;;11.00;;
8978;SDS011;4524;51.364;5.448;2022-11-20T01:43:29;14.43;;;11.80;;
8978;SDS011;4524;51.364;5.448;2022-11-20T01:45:57;16.33;;;11.13;;
8978;SDS011;4524;51.364;5.448;2022-11-20T01:48:29;13.83;;;10.67;;
8978;SDS011;4524;51.364;5.448;2022-11-20T01:51:00;16.23;;;10.87;;
8978;SDS011;4524;51.364;5.448;2022-11-20T01:53:32;14.73;;;10.77;;
8978;SDS011;4524;51.364;5.448;2022-11-20T01:56:04;15.50;;;11.10;;
8978;SDS011;4524;51.364;5.448;2022-11-20T01:58:36;15.50;;;11.10;;
8978;SDS011;4524;51.364;5.448;2022-11-20T02:01:08;14.10;;;11.23;;
8978;SDS011;4524;51.364;5.448;2022-11-20T02:03:36;13.17;;;11.03;;
8978;SDS011;4524;51.364;5.448;2022-11-20T02:06:06;14.40;;;11.10;;
8978;SDS011;4524;51.364;5.448;2022-11-20T02:08:40;15.00;;;11.33;;
8978;SDS011;4524;51.364;5.448;2022-11-20T02:11:08;14.77;;;10.67;;
8978;SDS011;4524;51.364;5.448;2022-11-20T02:13:36;14.17;;;11.23;;
8978;SDS011;4524;51.364;5.448;2022-11-20T02:16:16;14.33;;;10.70;;
8978;SDS011;4524;51.364;5.448;2022-11-20T02:18:48;13.10;;;10.70;;
8978;SDS011;4524;51.364;5.448;2022-11-20T02:21:28;14.10;;;11.40;;
8978;SDS011;4524;51.364;5.448;2022-11-20T02:24:10;14.67;;;12.40;;
8978;SDS011;4524;51.364;5.448;2022-11-20T02:26:43;14.53;;;11.40;;
8978;SDS011;4524;51.364;5.448;2022-11-20T02:29:15;16.10;;;12.13;;
8978;SDS011;4524;51.364;5.448;2022-11-20T02:31:46;14.70;;;10.87;;
8978;SDS011;4524;51.364;5.448;2022-11-20T02:34:14;14.67;;;11.60;;
8978;SDS011;4524;51.364;5.448;2022-11-20T02:36:42;14.20;;;11.47;;
8978;SDS011;4524;51.364;5.448;2022-11-20T02:39:13;13.60;;;11.07;;
8978;SDS011;4524;51.364;5.448;2022-11-20T02:41:43;15.77;;;12.20;;
8978;SDS011;4524;51.364;5.448;2022-11-20T02:44:11;14.70;;;11.23;;
8978;SDS011;4524;51.364;5.448;2022-11-20T02:46:39;16.50;;;11.60;;
8978;SDS011;4524;51.364;5.448;2022-11-20T02:49:07;14.23;;;11.43;;
8978;SDS011;4524;51.364;5.448;2022-11-20T02:51:35;15.90;;;11.90;;
8978;SDS011;4524;51.364;5.448;2022-11-20T02:54:03;15.87;;;11.50;;
8978;SDS011;4524;51.364;5.448;2022-11-20T02:56:32;13.87;;;10.93;;
8978;SDS011;4524;51.364;5.448;2022-11-20T02:59:00;16.67;;;11.93;;
8978;SDS011;4524;51.364;5.448;2022-11-20T03:01:28;14.73;;;11.73;;
8978;SDS011;4524;51.364;5.448;2022-11-20T03:03:56;15.27;;;11.90;;
8978;SDS011;4524;51.364;5.448;2022-11-20T03:06:24;15.77;;;12.13;;
8978;SDS011;4524;51.364;5.448;2022-11-20T03:08:52;15.37;;;11.90;;
8978;SDS011;4524;51.364;5.448;2022-11-20T03:11:20;16.20;;;12.07;;
8978;SDS011;4524;51.364;5.448;2022-11-20T03:13:49;14.63;;;12.00;;
8978;SDS011;4524;51.364;5.448;2022-11-20T03:16:17;14.47;;;11.20;;
8978;SDS011;4524;51.364;5.448;2022-11-20T03:18:47;14.07;;;11.40;;
8978;SDS011;4524;51.364;5.448;2022-11-20T03:21:15;15.17;;;11.30;;
8978;SDS011;4524;51.364;5.448;2022-11-20T03:23:44;14.40;;;11.23;;
8978;SDS011;4524;51.364;5.448;2022-11-20T03:26:13;15.53;;;11.57;;
8978;SDS011;4524;51.364;5.448;2022-11-20T03:28:45;14.83;;;11.37;;
8978;SDS011;4524;51.364;5.448;2022-11-20T03:31:18;16.77;;;11.47;;
8978;SDS011;4524;51.364;5.448;2022-11-20T03:33:47;14.23;;;11.07;;
8978;SDS011;4524;51.364;5.448;2022-11-20T03:36:16;14.77;;;11.33;;
8978;SDS011;4524;51.364;5.448;2022-11-20T03:38:46;17.60;;;11.87;;
8978;SDS011;4524;51.364;5.448;2022-11-20T03:41:15;15.60;;;11.80;;
8978;SDS011;4524;51.364;5.448;2022-11-20T03:43:46;15.77;;;11.47;;
8978;SDS011;4524;51.364;5.448;2022-11-20T03:46:15;15.27;;;11.83;;
8978;SDS011;4524;51.364;5.448;2022-11-20T03:48:45;14.07;;;11.33;;
8978;SDS011;4524;51.364;5.448;2022-11-20T03:51:18;15.93;;;11.43;;
8978;SDS011;4524;51.364;5.448;2022-11-20T03:53:47;15.27;;;11.90;;
8978;SDS011;4524;51.364;5.448;2022-11-20T03:56:17;16.13;;;11.87;;
8978;SDS011;4524;51.364;5.448;2022-11-20T03:58:47;18.13;;;11.80;;
8978;SDS011;4524;51.364;5.448;2022-11-20T04:01:16;15.00;;;11.20;;
8978;SDS011;4524;51.364;5.448;2022-11-20T04:03:46;13.90;;;10.97;;
8978;SDS011;4524;51.364;5.448;2022-11-20T04:06:15;13.47;;;11.03;;
8978;SDS011;4524;51.364;5.448;2022-11-20T04:08:44;15.63;;;11.90;;
8978;SDS011;4524;51.364;5.448;2022-11-20T04:11:19;14.43;;;12.00;;
8978;SDS011;4524;51.364;5.448;2022-11-20T04:13:49;16.20;;;11.40;;
8978;SDS011;4524;51.364;5.448;2022-11-20T04:16:20;17.40;;;12.03;;
8978;SDS011;4524;51.364;5.448;2022-11-20T04:18:51;15.47;;;11.80;;
8978;SDS011;4524;51.364;5.448;2022-11-20T04:21:20;13.53;;;11.00;;
8978;SDS011;4524;51.364;5.448;2022-11-20T04:23:48;14.17;;;11.33;;
8978;SDS011;4524;51.364;5.448;2022-11-20T04:26:16;15.33;;;11.80;;
8978;SDS011;4524;51.364;5.448;2022-11-20T04:28:44;14.83;;;11.13;;
8978;SDS011;4524;51.364;5.448;2022-11-20T04:31:12;15.13;;;10.87;;
8978;SDS011;4524;51.364;5.448;2022-11-20T04:33:43;14.27;;;11.33;;
8978;SDS011;4524;51.364;5.448;2022-11-20T04:36:12;16.17;;;12.30;;
8978;SDS011;4524;51.364;5.448;2022-11-20T04:38:42;14.53;;;11.80;;
8978;SDS011;4524;51.364;5.448;2022-11-20T04:41:17;14.37;;;11.60;;
8978;SDS011;4524;51.364;5.448;2022-11-20T04:43:46;13.30;;;10.90;;
8978;SDS011;4524;51.364;5.448;2022-11-20T04:46:15;16.60;;;11.67;;
8978;SDS011;4524;51.364;5.448;2022-11-20T04:48:45;14.57;;;11.40;;
8978;SDS011;4524;51.364;5.448;2022-11-20T04:51:13;14.40;;;11.50;;
8978;SDS011;4524;51.364;5.448;2022-11-20T04:53:41;15.23;;;11.30;;
8978;SDS011;4524;51.364;5.448;2022-11-20T04:56:10;14.83;;;11.17;;
8978;SDS011;4524;51.364;5.448;2022-11-20T04:58:39;14.83;;;11.33;;
8978;SDS011;4524;51.364;5.448;2022-11-20T05:01:09;16.10;;;12.43;;
8978;SDS011;4524;51.364;5.448;2022-11-20T05:03:38;15.07;;;11.33;;
8978;SDS011;4524;51.364;5.448;2022-11-20T05:06:09;14.93;;;11.80;;
8978;SDS011;4524;51.364;5.448;2022-11-20T05:08:38;15.33;;;12.07;;
8978;SDS011;4524;51.364;5.448;2022-11-20T05:11:08;14.63;;;11.47;;
8978;SDS011;4524;51.364;5.448;2022-11-20T05:13:37;15.50;;;11.67;;
8978;SDS011;4524;51.364;5.448;2022-11-20T05:16:06;16.47;;;12.53;;
8978;SDS011;4524;51.364;5.448;2022-11-20T05:18:36;16.47;;;12.07;;
8978;SDS011;4524;51.364;5.448;2022-11-20T05:21:05;15.70;;;12.57;;
8978;SDS011;4524;51.364;5.448;2022-11-20T05:23:35;14.10;;;11.20;;
8978;SDS011;4524;51.364;5.448;2022-11-20T05:26:04;15.67;;;12.10;;
8978;SDS011;4524;51.364;5.448;2022-11-20T05:28:33;14.10;;;10.97;;
8978;SDS011;4524;51.364;5.448;2022-11-20T05:31:05;15.60;;;12.30;;
8978;SDS011;4524;51.364;5.448;2022-11-20T05:33:34;13.60;;;10.97;;
8978;SDS011;4524;51.364;5.448;2022-11-20T05:36:02;14.70;;;11.87;;
8978;SDS011;4524;51.364;5.448;2022-11-20T05:38:31;15.87;;;11.43;;
8978;SDS011;4524;51.364;5.448;2022-11-20T05:41:04;15.07;;;11.97;;
8978;SDS011;4524;51.364;5.448;2022-11-20T05:43:33;15.17;;;12.07;;
8978;SDS011;4524;51.364;5.448;2022-11-20T05:46:01;14.63;;;11.67;;
8978;SDS011;4524;51.364;5.448;2022-11-20T05:48:29;15.43;;;11.37;;
8978;SDS011;4524;51.364;5.448;2022-11-20T05:50:57;17.10;;;11.90;;
8978;SDS011;4524;51.364;5.448;2022-11-20T05:53:25;14.73;;;11.40;;
8978;SDS011;4524;51.364;5.448;2022-11-20T05:55:57;15.00;;;12.10;;
8978;SDS011;4524;51.364;5.448;2022-11-20T05:58:27;14.13;;;11.50;;
8978;SDS011;4524;51.364;5.448;2022-11-20T06:01:02;15.93;;;11.97;;
8978;SDS011;4524;51.364;5.448;2022-11-20T06:03:32;16.17;;;11.73;;
8978;SDS011;4524;51.364;5.448;2022-11-20T06:06:00;14.87;;;11.23;;
8978;SDS011;4524;51.364;5.448;2022-11-20T06:08:29;15.63;;;12.40;;
8978;SDS011;4524;51.364;5.448;2022-11-20T06:10:57;15.37;;;12.47;;
8978;SDS011;4524;51.364;5.448;2022-11-20T06:13:25;15.17;;;12.10;;
8978;SDS011;4524;51.364;5.448;2022-11-20T06:15:54;18.20;;;13.23;;
8978;SDS011;4524;51.364;5.448;2022-11-20T06:18:22;20.37;;;13.73;;
8978;SDS011;4524;51.364;5.448;2022-11-20T06:20:50;14.43;;;11.33;;
8978;SDS011;4524;51.364;5.448;2022-11-20T06:23:27;16.97;;;11.60;;
8978;SDS011;4524;51.364;5.448;2022-11-20T06:25:56;15.00;;;12.50;;
8978;SDS011;4524;51.364;5.448;2022-11-20T06:28:24;16.00;;;12.27;;
8978;SDS011;4524;51.364;5.448;2022-11-20T06:30:52;14.20;;;11.87;;
8978;SDS011;4524;51.364;5.448;2022-11-20T06:33:21;14.57;;;12.00;;
8978;SDS011;4524;51.364;5.448;2022-11-20T06:35:49;16.70;;;11.97;;
8978;SDS011;4524;51.364;5.448;2022-11-20T06:38:24;14.93;;;11.80;;
8978;SDS011;4524;51.364;5.448;2022-11-20T06:40:53;14.87;;;12.40;;
8978;SDS011;4524;51.364;5.448;2022-11-20T06:43:21;15.70;;;11.73;;
8978;SDS011;4524;51.364;5.448;2022-11-20T06:45:51;14.13;;;12.00;;
8978;SDS011;4524;51.364;5.448;2022-11-20T06:48:21;15.67;;;12.50;;
8978;SDS011;4524;51.364;5.448;2022-11-20T06:50:50;14.83;;;12.60;;
8978;SDS011;4524;51.364;5.448;2022-11-20T06:53:18;16.97;;;12.20;;
8978;SDS011;4524;51.364;5.448;2022-11-20T06:55:46;17.80;;;12.03;;
8978;SDS011;4524;51.364;5.448;2022-11-20T06:58:15;16.77;;;13.00;;
8978;SDS011;4524;51.364;5.448;2022-11-20T07:00:43;15.47;;;12.40;;
8978;SDS011;4524;51.364;5.448;2022-11-20T07:03:11;16.93;;;12.03;;
8978;SDS011;4524;51.364;5.448;2022-11-20T07:05:41;15.63;;;12.60;;
8978;SDS011;4524;51.364;5.448;2022-11-20T07:08:09;16.07;;;12.23;;
8978;SDS011;4524;51.364;5.448;2022-11-20T07:10:36;17.43;;;11.83;;
8978;SDS011;4524;51.364;5.448;2022-11-20T07:13:04;14.17;;;11.83;;
8978;SDS011;4524;51.364;5.448;2022-11-20T07:15:33;17.73;;;12.77;;
8978;SDS011;4524;51.364;5.448;2022-11-20T07:18:01;13.30;;;10.87;;
8978;SDS011;4524;51.364;5.448;2022-11-20T07:20:29;14.33;;;11.57;;
8978;SDS011;4524;51.364;5.448;2022-11-20T07:22:58;15.63;;;11.93;;
8978;SDS011;4524;51.364;5.448;2022-11-20T07:25:27;14.70;;;12.13;;
8978;SDS011;4524;51.364;5.448;2022-11-20T07:27:56;13.87;;;12.30;;
8978;SDS011;4524;51.364;5.448;2022-11-20T07:30:25;18.07;;;12.70;;
8978;SDS011;4524;51.364;5.448;2022-11-20T07:32:54;14.77;;;11.97;;
8978;SDS011;4524;51.364;5.448;2022-11-20T07:35:22;16.47;;;12.13;;
8978;SDS011;4524;51.364;5.448;2022-11-20T07:37:51;15.03;;;12.07;;
8978;SDS011;4524;51.364;5.448;2022-11-20T07:40:20;17.00;;;12.07;;
8978;SDS011;4524;51.364;5.448;2022-11-20T07:42:48;15.00;;;12.17;;
8978;SDS011;4524;51.364;5.448;2022-11-20T07:45:16;16.00;;;12.63;;
8978;SDS011;4524;51.364;5.448;2022-11-20T07:47:44;15.00;;;12.43;;
8978;SDS011;4524;51.364;5.448;2022-11-20T07:50:12;17.97;;;13.00;;
8978;SDS011;4524;51.364;5.448;2022-11-20T07:52:41;15.80;;;12.07;;
8978;SDS011;4524;51.364;5.448;2022-11-20T07:55:09;16.70;;;12.37;;
8978;SDS011;4524;51.364;5.448;2022-11-20T07:57:39;16.17;;;12.77;;
8978;SDS011;4524;51.364;5.448;2022-11-20T08:00:08;16.67;;;12.90;;
8978;SDS011;4524;51.364;5.448;2022-11-20T08:02:38;17.83;;;12.70;;
8978;SDS011;4524;51.364;5.448;2022-11-20T08:05:06;15.93;;;11.90;;
8978;SDS011;4524;51.364;5.448;2022-11-20T08:07:36;17.53;;;13.20;;
8978;SDS011;4524;51.364;5.448;2022-11-20T08:10:05;17.23;;;12.47;;
8978;SDS011;4524;51.364;5.448;2022-11-20T08:12:34;17.47;;;13.30;;
8978;SDS011;4524;51.364;5.448;2022-11-20T08:15:20;15.17;;;11.97;;
8978;SDS011;4524;51.364;5.448;2022-11-20T08:17:48;18.07;;;13.33;;
8978;SDS011;4524;51.364;5.448;2022-11-20T08:20:36;19.60;;;13.90;;
8978;SDS011;4524;51.364;5.448;2022-11-20T08:23:04;17.03;;;13.60;;
8978;SDS011;4524;51.364;5.448;2022-11-20T08:25:34;19.83;;;13.80;;
8978;SDS011;4524;51.364;5.448;2022-11-20T08:28:03;19.00;;;13.43;;
8978;SDS011;4524;51.364;5.448;2022-11-20T08:30:46;20.63;;;14.37;;
8978;SDS011;4524;51.364;5.448;2022-11-20T08:33:14;19.43;;;14.03;;
8978;SDS011;4524;51.364;5.448;2022-11-20T08:35:43;22.17;;;14.73;;
8978;SDS011;4524;51.364;5.448;2022-11-20T08:38:11;26.53;;;14.77;;
8978;SDS011;4524;51.364;5.448;2022-11-20T08:40:39;21.80;;;15.33;;
8978;SDS011;4524;51.364;5.448;2022-11-20T08:43:06;27.27;;;15.77;;
8978;SDS011;4524;51.364;5.448;2022-11-20T08:45:34;27.10;;;17.50;;
8978;SDS011;4524;51.364;5.448;2022-11-20T08:48:04;28.60;;;17.43;;
8978;SDS011;4524;51.364;5.448;2022-11-20T08:50:32;25.40;;;16.20;;
8978;SDS011;4524;51.364;5.448;2022-11-20T08:53:03;31.13;;;18.67;;
8978;SDS011;4524;51.364;5.448;2022-11-20T08:55:32;32.17;;;19.13;;
8978;SDS011;4524;51.364;5.448;2022-11-20T08:58:02;29.53;;;18.53;;
8978;SDS011;4524;51.364;5.448;2022-11-20T09:00:30;32.30;;;19.23;;
8978;SDS011;4524;51.364;5.448;2022-11-20T09:02:59;32.23;;;19.53;;
8978;SDS011;4524;51.364;5.448;2022-11-20T09:05:29;35.57;;;20.00;;
8978;SDS011;4524;51.364;5.448;2022-11-20T09:07:57;36.23;;;20.10;;
8978;SDS011;4524;51.364;5.448;2022-11-20T09:10:25;34.07;;;20.00;;
8978;SDS011;4524;51.364;5.448;2022-11-20T09:12:53;35.07;;;21.10;;
8978;SDS011;4524;51.364;5.448;2022-11-20T09:15:22;41.60;;;21.80;;
8978;SDS011;4524;51.364;5.448;2022-11-20T09:17:50;36.03;;;20.73;;
8978;SDS011;4524;51.364;5.448;2022-11-20T09:20:18;36.67;;;22.47;;
8978;SDS011;4524;51.364;5.448;2022-11-20T09:22:48;37.80;;;21.80;;
8978;SDS011;4524;51.364;5.448;2022-11-20T09:25:16;36.90;;;22.93;;
8978;SDS011;4524;51.364;5.448;2022-11-20T09:27:44;38.37;;;22.33;;
8978;SDS011;4524;51.364;5.448;2022-11-20T09:30:13;40.37;;;24.47;;
8978;SDS011;4524;51.364;5.448;2022-11-20T09:32:42;37.33;;;22.87;;
8978;SDS011;4524;51.364;5.448;2022-11-20T09:35:10;43.57;;;24.27;;
8978;SDS011;4524;51.364;5.448;2022-11-20T09:37:38;36.27;;;22.43;;
8978;SDS011;4524;51.364;5.448;2022-11-20T09:40:09;35.53;;;23.27;;
8978;SDS011;4524;51.364;5.448;2022-11-20T09:42:47;36.40;;;23.17;;
8978;SDS011;4524;51.364;5.448;2022-11-20T09:45:23;42.03;;;24.47;;
8978;SDS011;4524;51.364;5.448;2022-11-20T09:48:02;39.13;;;23.00;;
8978;SDS011;4524;51.364;5.448;2022-11-20T09:50:45;38.57;;;23.27;;
8978;SDS011;4524;51.364;5.448;2022-11-20T09:53:23;39.40;;;24.30;;
8978;SDS011;4524;51.364;5.448;2022-11-20T09:56:02;34.73;;;22.57;;
8978;SDS011;4524;51.364;5.448;2022-11-20T09:58:32;35.53;;;23.27;;
8978;SDS011;4524;51.364;5.448;2022-11-20T10:01:08;38.47;;;22.83;;
8978;SDS011;4524;51.364;5.448;2022-11-20T10:03:42;41.80;;;24.03;;
8978;SDS011;4524;51.364;5.448;2022-11-20T10:06:17;40.20;;;24.67;;
8978;SDS011;4524;51.364;5.448;2022-11-20T10:08:51;33.27;;;21.77;;
8978;SDS011;4524;51.364;5.448;2022-11-20T10:11:27;37.10;;;22.70;;
8978;SDS011;4524;51.364;5.448;2022-11-20T10:14:05;35.47;;;21.80;;
8978;SDS011;4524;51.364;5.448;2022-11-20T10:16:41;34.53;;;20.87;;
8978;SDS011;4524;51.364;5.448;2022-11-20T10:19:20;31.43;;;19.80;;
8978;SDS011;4524;51.364;5.448;2022-11-20T10:22:03;35.30;;;21.97;;
8978;SDS011;4524;51.364;5.448;2022-11-20T10:24:43;30.90;;;20.13;;
8978;SDS011;4524;51.364;5.448;2022-11-20T10:30:19;30.83;;;20.70;;
8978;SDS011;4524;51.364;5.448;2022-11-20T10:32:51;34.40;;;20.70;;
8978;SDS011;4524;51.364;5.448;2022-11-20T10:35:22;34.43;;;21.60;;
8978;SDS011;4524;51.364;5.448;2022-11-20T10:37:55;32.37;;;20.37;;
8978;SDS011;4524;51.364;5.448;2022-11-20T10:40:27;33.13;;;21.27;;
8978;SDS011;4524;51.364;5.448;2022-11-20T10:43:01;32.47;;;20.73;;
8978;SDS011;4524;51.364;5.448;2022-11-20T10:45:34;34.90;;;20.77;;
8978;SDS011;4524;51.364;5.448;2022-11-20T10:48:11;34.07;;;20.77;;
8978;SDS011;4524;51.364;5.448;2022-11-20T10:50:55;33.37;;;20.23;;
8978;SDS011;4524;51.364;5.448;2022-11-20T10:53:33;32.17;;;20.93;;
8978;SDS011;4524;51.364;5.448;2022-11-20T10:56:13;34.70;;;20.80;;
8978;SDS011;4524;51.364;5.448;2022-11-20T10:58:48;34.93;;;21.93;;
8978;SDS011;4524;51.364;5.448;2022-11-20T11:01:27;32.57;;;20.27;;
8978;SDS011;4524;51.364;5.448;2022-11-20T11:03:55;35.33;;;21.37;;
8978;SDS011;4524;51.364;5.448;2022-11-20T11:06:28;32.90;;;20.40;;
8978;SDS011;4524;51.364;5.448;2022-11-20T11:09:02;30.73;;;20.03;;
8978;SDS011;4524;51.364;5.448;2022-11-20T11:11:37;34.37;;;21.17;;
8978;SDS011;4524;51.364;5.448;2022-11-20T11:14:08;36.83;;;21.40;;
8978;SDS011;4524;51.364;5.448;2022-11-20T11:16:44;33.77;;;21.23;;
8978;SDS011;4524;51.364;5.448;2022-11-20T11:19:17;32.57;;;20.77;;
8978;SDS011;4524;51.364;5.448;2022-11-20T11:21:46;33.87;;;21.10;;
8978;SDS011;4524;51.364;5.448;2022-11-20T11:24:21;33.30;;;20.67;;
8978;SDS011;4524;51.364;5.448;2022-11-20T11:27:10;35.20;;;20.97;;
8978;SDS011;4524;51.364;5.448;2022-11-20T11:29:44;34.50;;;20.37;;
8978;SDS011;4524;51.364;5.448;2022-11-20T11:32:13;34.73;;;20.80;;
8978;SDS011;4524;51.364;5.448;2022-11-20T11:34:43;34.80;;;21.00;;
8978;SDS011;4524;51.364;5.448;2022-11-20T11:37:13;36.30;;;20.30;;
8978;SDS011;4524;51.364;5.448;2022-11-20T11:39:44;31.27;;;19.73;;
8978;SDS011;4524;51.364;5.448;2022-11-20T11:42:29;33.77;;;19.37;;
8978;SDS011;4524;51.364;5.448;2022-11-20T11:44:59;33.83;;;20.70;;
8978;SDS011;4524;51.364;5.448;2022-11-20T11:47:33;36.27;;;20.67;;
8978;SDS011;4524;51.364;5.448;2022-11-20T11:50:15;35.93;;;19.83;;
8978;SDS011;4524;51.364;5.448;2022-11-20T11:52:47;32.83;;;19.73;;
8978;SDS011;4524;51.364;5.448;2022-11-20T11:55:24;33.53;;;20.20;;
8978;SDS011;4524;51.364;5.448;2022-11-20T11:58:00;36.67;;;20.10;;
8978;SDS011;4524;51.364;5.448;2022-11-20T12:00:39;30.63;;;19.13;;
8978;SDS011;4524;51.364;5.448;2022-11-20T12:03:13;35.03;;;20.50;;
8978;SDS011;4524;51.364;5.448;2022-11-20T12:05:44;34.83;;;19.87;;
8978;SDS011;4524;51.364;5.448;2022-11-20T12:08:15;34.50;;;20.43;;
8978;SDS011;4524;51.364;5.448;2022-11-20T12:10:50;36.70;;;20.87;;
8978;SDS011;4524;51.364;5.448;2022-11-20T12:13:30;37.07;;;21.67;;
8978;SDS011;4524;51.364;5.448;2022-11-20T12:16:12;35.77;;;20.50;;
8978;SDS011;4524;51.364;5.448;2022-11-20T12:18:41;35.23;;;21.60;;
8978;SDS011;4524;51.364;5.448;2022-11-20T12:21:12;33.23;;;20.77;;
8978;SDS011;4524;51.364;5.448;2022-11-20T12:23:53;34.97;;;21.63;;
8978;SDS011;4524;51.364;5.448;2022-11-20T12:26:44;34.90;;;20.77;;
8978;SDS011;4524;51.364;5.448;2022-11-20T12:29:29;35.53;;;20.40;;
8978;SDS011;4524;51.364;5.448;2022-11-20T12:32:16;37.13;;;21.23;;
8978;SDS011;4524;51.364;5.448;2022-11-20T12:35:17;38.40;;;21.20;;
8978;SDS011;4524;51.364;5.448;2022-11-20T12:38:07;35.83;;;21.13;;
8978;SDS011;4524;51.364;5.448;2022-11-20T12:40:55;37.17;;;22.30;;
8978;SDS011;4524;51.364;5.448;2022-11-20T12:43:31;38.27;;;22.13;;
8978;SDS011;4524;51.364;5.448;2022-11-20T12:46:24;40.47;;;22.53;;
8978;SDS011;4524;51.364;5.448;2022-11-20T12:49:02;41.53;;;22.70;;
8978;SDS011;4524;51.364;5.448;2022-11-20T12:51:44;37.23;;;21.97;;
8978;SDS011;4524;51.364;5.448;2022-11-20T12:54:31;44.77;;;23.43;;
8978;SDS011;4524;51.364;5.448;2022-11-20T12:57:15;40.47;;;23.10;;
8978;SDS011;4524;51.364;5.448;2022-11-20T12:59:54;39.70;;;22.47;;
8978;SDS011;4524;51.364;5.448;2022-11-20T13:02:38;38.70;;;22.40;;
8978;SDS011;4524;51.364;5.448;2022-11-20T13:05:30;41.50;;;23.80;;
8978;SDS011;4524;51.364;5.448;2022-11-20T13:08:04;38.57;;;22.63;;
8978;SDS011;4524;51.364;5.448;2022-11-20T13:10:43;38.57;;;22.03;;
8978;SDS011;4524;51.364;5.448;2022-11-20T13:13:17;40.00;;;22.13;;
8978;SDS011;4524;51.364;5.448;2022-11-20T13:15:51;37.40;;;22.33;;
8978;SDS011;4524;51.364;5.448;2022-11-20T13:18:23;39.83;;;23.30;;
8978;SDS011;4524;51.364;5.448;2022-11-20T13:20:52;39.80;;;23.33;;
8978;SDS011;4524;51.364;5.448;2022-11-20T13:23:24;37.43;;;22.80;;
8978;SDS011;4524;51.364;5.448;2022-11-20T13:26:02;40.73;;;23.73;;
8978;SDS011;4524;51.364;5.448;2022-11-20T13:28:32;37.77;;;22.43;;
8978;SDS011;4524;51.364;5.448;2022-11-20T13:31:00;39.70;;;22.97;;
8978;SDS011;4524;51.364;5.448;2022-11-20T13:33:29;38.77;;;22.83;;
8978;SDS011;4524;51.364;5.448;2022-11-20T13:36:00;40.63;;;21.57;;
8978;SDS011;4524;51.364;5.448;2022-11-20T13:38:39;43.63;;;23.27;;
8978;SDS011;4524;51.364;5.448;2022-11-20T13:41:09;39.80;;;22.37;;
8978;SDS011;4524;51.364;5.448;2022-11-20T13:44:10;42.57;;;23.00;;
8978;SDS011;4524;51.364;5.448;2022-11-20T13:46:41;37.90;;;22.00;;
8978;SDS011;4524;51.364;5.448;2022-11-20T13:49:15;41.47;;;24.20;;
8978;SDS011;4524;51.364;5.448;2022-11-20T13:51:50;41.70;;;23.50;;
8978;SDS011;4524;51.364;5.448;2022-11-20T13:54:42;37.27;;;21.57;;
8978;SDS011;4524;51.364;5.448;2022-11-20T13:57:26;40.97;;;22.93;;
8978;SDS011;4524;51.364;5.448;2022-11-20T14:00:16;40.67;;;22.20;;
8978;SDS011;4524;51.364;5.448;2022-11-20T14:02:50;40.97;;;22.53;;
8978;SDS011;4524;51.364;5.448;2022-11-20T14:05:27;40.70;;;21.93;;
8978;SDS011;4524;51.364;5.448;2022-11-20T14:07:57;40.97;;;22.87;;
8978;SDS011;4524;51.364;5.448;2022-11-20T14:10:26;41.77;;;23.03;;
8978;SDS011;4524;51.364;5.448;2022-11-20T14:12:58;40.87;;;21.87;;
8978;SDS011;4524;51.364;5.448;2022-11-20T14:15:27;39.13;;;22.90;;
8978;SDS011;4524;51.364;5.448;2022-11-20T14:17:56;40.90;;;23.30;;
8978;SDS011;4524;51.364;5.448;2022-11-20T14:20:25;39.70;;;23.07;;
8978;SDS011;4524;51.364;5.448;2022-11-20T14:22:57;41.50;;;22.97;;
8978;SDS011;4524;51.364;5.448;2022-11-20T14:25:25;42.23;;;23.10;;
8978;SDS011;4524;51.364;5.448;2022-11-20T14:27:54;43.13;;;22.83;;
8978;SDS011;4524;51.364;5.448;2022-11-20T14:30:24;43.13;;;24.67;;
8978;SDS011;4524;51.364;5.448;2022-11-20T14:32:54;42.27;;;22.43;;
8978;SDS011;4524;51.364;5.448;2022-11-20T14:35:24;45.03;;;23.90;;
8978;SDS011;4524;51.364;5.448;2022-11-20T14:37:54;39.27;;;25.03;;
8978;SDS011;4524;51.364;5.448;2022-11-20T14:40:25;41.87;;;24.63;;
8978;SDS011;4524;51.364;5.448;2022-11-20T14:42:55;38.90;;;23.47;;
8978;SDS011;4524;51.364;5.448;2022-11-20T14:45:24;36.70;;;23.00;;
8978;SDS011;4524;51.364;5.448;2022-11-20T14:47:53;43.17;;;22.87;;
8978;SDS011;4524;51.364;5.448;2022-11-20T14:50:24;45.07;;;24.03;;
8978;SDS011;4524;51.364;5.448;2022-11-20T14:52:53;46.30;;;24.70;;
8978;SDS011;4524;51.364;5.448;2022-11-20T14:55:27;45.60;;;24.07;;
8978;SDS011;4524;51.364;5.448;2022-11-20T14:57:58;44.63;;;23.20;;
8978;SDS011;4524;51.364;5.448;2022-11-20T15:00:28;41.07;;;22.67;;
8978;SDS011;4524;51.364;5.448;2022-11-20T15:02:57;43.47;;;22.77;;
8978;SDS011;4524;51.364;5.448;2022-11-20T15:05:26;43.00;;;23.60;;
8978;SDS011;4524;51.364;5.448;2022-11-20T15:08:15;42.47;;;22.80;;
8978;SDS011;4524;51.364;5.448;2022-11-20T15:10:46;40.87;;;22.37;;
8978;SDS011;4524;51.364;5.448;2022-11-20T15:13:16;36.77;;;22.47;;
8978;SDS011;4524;51.364;5.448;2022-11-20T15:15:49;43.30;;;23.67;;
8978;SDS011;4524;51.364;5.448;2022-11-20T15:18:19;40.20;;;21.47;;